createdAt,value
2023-04-25T00:00:16.100Z,11.64
2023-04-25T00:02:43.722Z,11.62
2023-04-25T00:05:11.299Z,11.63
2023-04-25T00:07:38.134Z,11.62
2023-04-25T00:10:06.014Z,11.62
2023-04-25T00:12:34.472Z,11.61
2023-04-25T00:15:01.253Z,11.60
2023-04-25T00:17:28.143Z,11.61
2023-04-25T00:19:55.038Z,11.61
2023-04-25T00:22:22.391Z,11.61
2023-04-25T00:24:49.203Z,11.62
2023-04-25T00:27:16.281Z,11.62
2023-04-25T00:29:43.101Z,11.61
2023-04-25T00:32:09.850Z,11.62
2023-04-25T00:34:36.998Z,11.59
2023-04-25T00:37:03.774Z,11.59
2023-04-25T00:39:30.586Z,11.56
2023-04-25T00:41:58.763Z,11.53
2023-04-25T00:44:27.719Z,11.51
2023-04-25T00:46:56.816Z,11.51
2023-04-25T00:49:23.618Z,11.50
2023-04-25T00:51:51.255Z,11.53
2023-04-25T00:54:18.263Z,11.51
2023-04-25T00:56:46.671Z,11.51
2023-04-25T00:59:14.359Z,11.52
2023-04-25T01:01:42.603Z,11.50
2023-04-25T01:04:09.720Z,11.48
2023-04-25T01:06:36.834Z,11.44
2023-04-25T01:09:05.810Z,11.42
2023-04-25T01:11:32.911Z,11.37
2023-04-25T01:14:00.118Z,11.34
2023-04-25T01:16:27.759Z,11.33
2023-04-25T01:18:55.983Z,11.31
2023-04-25T01:21:22.821Z,11.33
2023-04-25T01:23:49.980Z,11.34
2023-04-25T01:26:17.336Z,11.35
2023-04-25T01:28:44.399Z,11.36
2023-04-25T01:31:13.256Z,11.36
2023-04-25T01:33:40.159Z,11.36
2023-04-25T01:36:07.657Z,11.38
2023-04-25T01:38:34.875Z,11.39
2023-04-25T01:41:01.825Z,11.39
2023-04-25T01:43:28.885Z,11.40
2023-04-25T01:45:56.236Z,11.43
2023-04-25T01:48:23.043Z,11.42
2023-04-25T01:50:49.788Z,11.43
2023-04-25T01:53:16.781Z,11.42
2023-04-25T01:55:43.684Z,11.43
2023-04-25T01:58:10.908Z,11.41
2023-04-25T02:00:39.814Z,11.40
2023-04-25T02:03:07.524Z,11.43
2023-04-25T02:05:39.539Z,11.44
2023-04-25T02:08:08.842Z,11.44
2023-04-25T02:10:36.786Z,11.43
2023-04-25T02:13:05.324Z,11.44
2023-04-25T02:15:32.669Z,11.43
2023-04-25T02:18:01.082Z,11.43
2023-04-25T02:20:30.974Z,11.45
2023-04-25T02:22:57.789Z,11.45
2023-04-25T02:25:24.789Z,11.46
2023-04-25T02:27:52.332Z,11.45
2023-04-25T02:30:19.095Z,11.45
2023-04-25T02:32:46.464Z,11.47
2023-04-25T02:35:13.522Z,11.47
2023-04-25T02:37:41.447Z,11.45
2023-04-25T02:40:09.479Z,11.45
2023-04-25T02:42:36.567Z,11.44
2023-04-25T02:45:04.378Z,11.46
2023-04-25T02:47:31.642Z,11.43
2023-04-25T02:49:58.629Z,11.45
2023-04-25T02:52:26.339Z,11.46
2023-04-25T02:54:53.177Z,11.45
2023-04-25T02:57:20.152Z,11.46
2023-04-25T02:59:46.992Z,11.45
2023-04-25T03:02:13.777Z,11.46
2023-04-25T03:04:41.104Z,11.48
2023-04-25T03:07:08.262Z,11.48
2023-04-25T03:09:35.714Z,11.46
2023-04-25T03:12:02.494Z,11.44
2023-04-25T03:14:29.423Z,11.43
2023-04-25T03:16:56.252Z,11.43
2023-04-25T03:19:23.132Z,11.41
2023-04-25T03:21:50.153Z,11.40
2023-04-25T03:24:16.916Z,11.39
2023-04-25T03:26:43.696Z,11.37
2023-04-25T03:29:10.623Z,11.36
2023-04-25T03:31:37.416Z,11.32
2023-04-25T03:34:04.256Z,11.29
2023-04-25T03:36:31.519Z,11.31
2023-04-25T03:38:58.331Z,11.27
2023-04-25T03:41:25.904Z,11.29
2023-04-25T03:43:52.897Z,11.26
2023-04-25T03:46:19.936Z,11.25
2023-04-25T03:48:46.816Z,11.23
2023-04-25T03:51:13.571Z,11.23
2023-04-25T03:53:40.337Z,11.23
2023-04-25T03:56:07.708Z,11.22
2023-04-25T03:58:34.710Z,11.20
2023-04-25T04:01:04.418Z,11.20
2023-04-25T04:03:31.444Z,11.18
2023-04-25T04:05:59.939Z,11.18
2023-04-25T04:08:26.718Z,11.16
2023-04-25T04:10:55.882Z,11.18
2023-04-25T04:13:22.845Z,11.15
2023-04-25T04:15:49.780Z,11.14
2023-04-25T04:18:16.954Z,11.15
2023-04-25T04:20:43.809Z,11.14
2023-04-25T04:23:11.618Z,11.14
2023-04-25T04:25:38.776Z,11.12
2023-04-25T04:28:06.004Z,11.15
2023-04-25T04:30:34.188Z,11.15
2023-04-25T04:33:01.917Z,11.17
2023-04-25T04:35:28.891Z,11.18
2023-04-25T04:37:56.357Z,11.17
2023-04-25T04:40:23.205Z,11.18
2023-04-25T04:42:50.492Z,11.19
2023-04-25T04:45:17.882Z,11.19
2023-04-25T04:47:46.697Z,11.19
2023-04-25T04:50:13.529Z,11.18
2023-04-25T04:52:40.295Z,11.20
2023-04-25T04:55:08.697Z,11.22
2023-04-25T04:57:36.804Z,11.24
2023-04-25T05:00:06.129Z,11.25
2023-04-25T05:02:32.912Z,11.26
2023-04-25T05:04:59.728Z,11.32
2023-04-25T05:07:26.500Z,11.34
2023-04-25T05:09:53.217Z,11.38
2023-04-25T05:12:20.005Z,11.43
2023-04-25T05:14:46.772Z,11.48
2023-04-25T05:17:13.594Z,11.54
2023-04-25T05:19:40.686Z,11.61
2023-04-25T05:22:07.517Z,11.67
2023-04-25T05:24:34.302Z,11.70
2023-04-25T05:27:01.094Z,11.75
2023-04-25T05:29:27.881Z,11.82
2023-04-25T05:31:54.674Z,11.82
2023-04-25T05:34:21.665Z,11.87
2023-04-25T05:36:49.554Z,11.90
2023-04-25T05:39:19.125Z,11.94
2023-04-25T05:41:45.966Z,11.98
2023-04-25T05:44:12.715Z,12.02
2023-04-25T05:46:39.505Z,12.08
2023-04-25T05:49:06.303Z,12.11
2023-04-25T05:51:33.016Z,12.14
2023-04-25T05:53:59.772Z,12.18
2023-04-25T05:56:26.800Z,12.22
2023-04-25T05:58:53.845Z,12.27
2023-04-25T06:01:20.839Z,12.34
2023-04-25T06:03:48.182Z,12.41
2023-04-25T06:06:15.305Z,12.48
2023-04-25T06:08:42.434Z,12.57
2023-04-25T06:11:09.194Z,12.65
2023-04-25T06:13:35.997Z,12.75
2023-04-25T06:16:02.838Z,12.86
2023-04-25T06:18:29.681Z,13.02
2023-04-25T06:20:56.678Z,13.20
2023-04-25T06:23:23.521Z,13.43
2023-04-25T06:25:50.261Z,13.65
2023-04-25T06:28:17.050Z,13.81
2023-04-25T06:30:43.889Z,13.96
2023-04-25T06:33:10.742Z,14.11
2023-04-25T06:35:37.597Z,14.24
2023-04-25T06:38:04.403Z,14.41
2023-04-25T06:40:31.145Z,14.58
2023-04-25T06:42:57.926Z,14.78
2023-04-25T06:45:24.697Z,14.99
2023-04-25T06:47:51.513Z,15.17
2023-04-25T06:50:18.410Z,15.38
2023-04-25T06:52:45.159Z,15.61
2023-04-25T06:55:11.985Z,15.89
2023-04-25T06:57:38.757Z,16.21
2023-04-25T07:00:09.398Z,16.48
2023-04-25T07:02:36.812Z,16.71
2023-04-25T07:05:05.269Z,16.87
2023-04-25T07:07:32.096Z,16.92
2023-04-25T07:09:58.845Z,16.93
2023-04-25T07:12:25.664Z,16.90
2023-04-25T07:14:52.413Z,16.85
2023-04-25T07:17:19.190Z,16.77
2023-04-25T07:19:46.140Z,16.71
2023-04-25T07:22:12.905Z,16.59
2023-04-25T07:24:40.133Z,16.48
2023-04-25T07:27:07.145Z,16.38
2023-04-25T07:29:36.750Z,16.30
2023-04-25T07:32:03.705Z,16.25
2023-04-25T07:34:31.374Z,16.22
2023-04-25T07:36:58.177Z,16.20
2023-04-25T07:39:24.949Z,16.11
2023-04-25T07:41:54.525Z,16.05
2023-04-25T07:44:22.023Z,16.04
2023-04-25T07:46:48.801Z,16.05
2023-04-25T07:49:15.727Z,16.10
2023-04-25T07:51:44.274Z,16.13
2023-04-25T07:54:15.023Z,16.26
2023-04-25T07:56:52.255Z,16.46
2023-04-25T07:59:20.964Z,16.71
2023-04-25T08:01:47.659Z,16.91
2023-04-25T08:04:15.021Z,17.06
2023-04-25T08:06:42.108Z,17.18
2023-04-25T08:09:10.325Z,17.30
2023-04-25T08:11:37.860Z,17.38
2023-04-25T08:14:04.690Z,17.46
2023-04-25T08:16:31.886Z,17.52
2023-04-25T08:18:59.857Z,17.60
2023-04-25T08:21:27.865Z,17.71
2023-04-25T08:23:54.794Z,17.83
2023-04-25T08:26:21.584Z,17.98
2023-04-25T08:28:48.589Z,18.15
2023-04-25T08:31:15.972Z,18.29
2023-04-25T08:33:43.090Z,18.45
2023-04-25T08:36:10.215Z,18.61
2023-04-25T08:38:37.615Z,18.87
2023-04-25T08:41:07.461Z,19.13
2023-04-25T08:43:36.079Z,19.29
2023-04-25T08:46:03.373Z,19.33
2023-04-25T08:48:35.743Z,19.42
2023-04-25T08:53:36.154Z,19.71
2023-04-25T08:56:03.831Z,19.94
2023-04-25T08:58:31.540Z,20.25
2023-04-25T09:00:58.383Z,20.57
2023-04-25T09:03:25.570Z,20.99
2023-04-25T09:05:53.468Z,21.33
2023-04-25T09:08:20.186Z,21.70
2023-04-25T09:10:47.577Z,22.01
2023-04-25T09:13:24.657Z,22.23
2023-04-25T09:15:54.517Z,22.36
2023-04-25T09:18:35.312Z,22.34
2023-04-25T09:21:15.204Z,22.13
2023-04-25T09:23:47.395Z,21.86
2023-04-25T09:26:20.521Z,21.61
2023-04-25T09:28:49.034Z,21.38
2023-04-25T09:31:25.549Z,21.19
2023-04-25T09:34:02.069Z,21.01
2023-04-25T09:36:31.000Z,20.79
2023-04-25T09:39:00.751Z,20.55
2023-04-25T09:41:27.514Z,20.35
2023-04-25T09:44:00.024Z,20.12
2023-04-25T09:46:34.533Z,19.91
2023-04-25T09:49:08.832Z,19.76
2023-04-25T09:51:35.653Z,19.65
2023-04-25T09:54:02.435Z,19.57
2023-04-25T09:56:37.965Z,19.48
2023-04-25T09:59:06.681Z,19.39
2023-04-25T10:01:33.937Z,19.28
2023-04-25T10:04:04.528Z,19.21
2023-04-25T10:06:35.595Z,19.20
2023-04-25T10:09:04.734Z,19.23
2023-04-25T10:11:33.603Z,19.35
2023-04-25T10:14:01.720Z,19.53
2023-04-25T10:16:29.780Z,19.86
2023-04-25T10:18:57.551Z,20.24
2023-04-25T10:21:28.448Z,20.63
2023-04-25T10:23:56.505Z,20.99
2023-04-25T10:26:24.496Z,22.04
2023-04-25T10:29:03.701Z,23.48
2023-04-25T10:31:32.161Z,24.63
2023-04-25T10:34:02.211Z,26.05
2023-04-25T10:36:33.592Z,27.07
2023-04-25T10:39:07.895Z,27.55
2023-04-25T10:41:49.126Z,28.27
2023-04-25T10:44:16.513Z,28.82
2023-04-25T10:46:46.923Z,29.26
2023-04-25T10:49:37.352Z,29.78
2023-04-25T10:52:27.262Z,29.48
2023-04-25T10:54:57.078Z,28.99
2023-04-25T10:57:47.028Z,28.37
2023-04-25T11:00:20.001Z,28.03
2023-04-25T11:02:54.103Z,27.72
2023-04-25T11:05:26.852Z,28.17
2023-04-25T11:08:06.399Z,29.24
2023-04-25T11:10:38.330Z,29.74
2023-04-25T11:13:05.928Z,29.77
2023-04-25T11:15:32.816Z,29.27
2023-04-25T11:17:59.612Z,28.50
2023-04-25T11:20:29.178Z,27.71
2023-04-25T11:23:00.973Z,26.87
2023-04-25T11:25:28.852Z,26.10
2023-04-25T11:27:58.906Z,25.36
2023-04-25T11:30:27.896Z,24.74
2023-04-25T11:32:54.931Z,24.17
2023-04-25T11:35:24.024Z,23.64
2023-04-25T11:37:51.225Z,23.19
2023-04-25T11:40:18.655Z,22.76
2023-04-25T11:42:47.757Z,22.39
2023-04-25T11:45:15.704Z,22.04
2023-04-25T11:47:42.603Z,21.72
2023-04-25T11:50:10.796Z,21.42
2023-04-25T11:52:48.922Z,21.13
2023-04-25T11:55:19.248Z,20.89
2023-04-25T11:57:52.884Z,20.67
2023-04-25T12:00:22.430Z,20.49
2023-04-25T12:03:01.681Z,20.37
2023-04-25T12:05:34.753Z,20.30
2023-04-25T12:08:13.364Z,20.33
2023-04-25T12:10:42.757Z,20.41
2023-04-25T12:13:29.024Z,20.47
2023-04-25T12:15:57.063Z,20.51
2023-04-25T12:18:29.735Z,20.56
2023-04-25T12:20:57.076Z,20.65
2023-04-25T12:23:29.182Z,20.72
2023-04-25T12:25:56.816Z,20.77
2023-04-25T12:28:25.856Z,20.81
2023-04-25T12:30:59.009Z,20.90
2023-04-25T12:33:27.928Z,21.03
2023-04-25T12:35:56.877Z,21.13
2023-04-25T12:38:31.055Z,21.22
2023-04-25T12:40:59.346Z,21.39
2023-04-25T12:43:26.667Z,21.55
2023-04-25T12:45:55.061Z,21.75
2023-04-25T12:48:22.816Z,22.01
2023-04-25T12:50:51.652Z,22.29
2023-04-25T12:53:24.765Z,22.50
2023-04-25T12:55:52.204Z,22.64
2023-04-25T12:58:20.910Z,22.74
2023-04-25T13:00:48.802Z,22.69
2023-04-25T13:03:15.806Z,22.56
2023-04-25T13:05:43.653Z,22.40
2023-04-25T13:08:10.637Z,22.19
2023-04-25T13:10:39.380Z,21.92
2023-04-25T13:13:06.235Z,21.70
2023-04-25T13:15:33.583Z,21.47
2023-04-25T13:18:00.450Z,21.34
2023-04-25T13:20:27.426Z,21.29
2023-04-25T13:22:54.183Z,21.31
2023-04-25T13:25:22.730Z,21.36
2023-04-25T13:27:49.757Z,21.40
2023-04-25T13:30:16.730Z,21.47
2023-04-25T13:32:43.828Z,21.44
2023-04-25T13:35:14.803Z,21.38
2023-04-25T13:37:41.891Z,21.36
2023-04-25T13:40:12.217Z,21.38
2023-04-25T13:42:40.141Z,21.41
2023-04-25T13:45:08.614Z,21.32
2023-04-25T13:47:36.397Z,21.14
2023-04-25T13:50:06.517Z,20.91
2023-04-25T13:52:33.268Z,20.64
2023-04-25T13:55:00.633Z,20.38
2023-04-25T13:57:27.447Z,20.10
2023-04-25T13:59:54.739Z,19.81
2023-04-25T14:02:21.459Z,19.53
2023-04-25T14:04:48.315Z,19.31
2023-04-25T14:07:18.892Z,19.11
2023-04-25T14:09:45.735Z,18.91
2023-04-25T14:12:12.548Z,18.75
2023-04-25T14:14:39.307Z,18.59
2023-04-25T14:17:07.263Z,18.45
2023-04-25T14:19:33.957Z,18.38
2023-04-25T14:22:00.765Z,18.38
2023-04-25T14:24:27.516Z,18.37
2023-04-25T14:26:54.277Z,18.30
2023-04-25T14:29:21.091Z,18.27
2023-04-25T14:31:48.003Z,18.24
2023-04-25T14:34:14.744Z,18.23
2023-04-25T14:36:41.495Z,18.23
2023-04-25T14:39:08.222Z,18.26
2023-04-25T14:41:34.941Z,18.27
2023-04-25T14:44:02.267Z,18.22
2023-04-25T14:46:29.531Z,18.21
2023-04-25T14:48:57.233Z,18.22
2023-04-25T14:51:24.382Z,18.22
2023-04-25T14:53:52.123Z,18.18
2023-04-25T14:56:19.815Z,18.18
2023-04-25T14:58:47.118Z,18.18
2023-04-25T15:01:14.806Z,18.17
2023-04-25T15:03:42.020Z,18.19
2023-04-25T15:06:09.060Z,18.24
2023-04-25T15:08:36.846Z,18.28
2023-04-25T15:11:03.961Z,18.30
2023-04-25T15:13:30.966Z,18.27
2023-04-25T15:15:57.725Z,18.25
2023-04-25T15:18:24.740Z,18.20
2023-04-25T15:20:55.030Z,18.14
2023-04-25T15:23:22.852Z,18.13
2023-04-25T15:25:53.367Z,18.13
2023-04-25T15:28:22.213Z,18.11
2023-04-25T15:30:49.555Z,18.03
2023-04-25T15:33:16.457Z,17.92
2023-04-25T15:35:43.881Z,17.85
2023-04-25T15:38:11.561Z,17.81
2023-04-25T15:40:38.583Z,17.78
2023-04-25T15:43:05.445Z,17.78
2023-04-25T15:45:33.021Z,17.80
2023-04-25T15:47:59.910Z,17.83
2023-04-25T15:50:26.963Z,17.83
2023-04-25T15:52:54.125Z,17.81
2023-04-25T15:55:21.849Z,17.81
2023-04-25T15:57:51.255Z,17.81
2023-04-25T16:00:19.279Z,17.74
2023-04-25T16:02:48.233Z,17.69
2023-04-25T16:05:15.677Z,17.64
2023-04-25T16:07:44.541Z,17.57
2023-04-25T16:10:12.745Z,17.49
2023-04-25T16:12:42.769Z,17.39
2023-04-25T16:15:09.764Z,17.34
2023-04-25T16:17:36.678Z,17.35
2023-04-25T16:20:10.212Z,17.37
2023-04-25T16:22:40.551Z,17.40
2023-04-25T16:25:08.223Z,17.43
2023-04-25T16:27:36.190Z,17.43
2023-04-25T16:30:04.534Z,17.40
2023-04-25T16:32:31.314Z,17.33
2023-04-25T16:34:59.016Z,17.26
2023-04-25T16:37:26.856Z,17.21
2023-04-25T16:39:53.686Z,17.14
2023-04-25T16:42:20.576Z,17.05
2023-04-25T16:44:47.480Z,16.97
2023-04-25T16:47:18.663Z,16.89
2023-04-25T16:49:46.943Z,16.85
2023-04-25T16:52:14.241Z,16.78
2023-04-25T16:54:41.060Z,16.70
2023-04-25T16:57:10.931Z,16.64
2023-04-25T16:59:39.219Z,16.55
2023-04-25T17:02:10.679Z,16.49
2023-04-25T17:04:37.546Z,16.41
2023-04-25T17:07:04.597Z,16.37
2023-04-25T17:09:32.506Z,16.31
2023-04-25T17:11:59.806Z,16.26
2023-04-25T17:14:27.194Z,16.21
2023-04-25T17:16:54.136Z,16.13
2023-04-25T17:19:21.498Z,16.07
2023-04-25T17:21:48.385Z,16.02
2023-04-25T17:24:15.807Z,15.96
2023-04-25T17:26:42.696Z,15.89
2023-04-25T17:29:09.508Z,15.82
2023-04-25T17:31:36.626Z,15.75
2023-04-25T17:34:05.010Z,15.65
2023-04-25T17:36:47.392Z,15.57
2023-04-25T17:39:17.782Z,15.45
2023-04-25T17:41:44.992Z,15.38
2023-04-25T17:44:11.923Z,15.33
2023-04-25T17:46:38.901Z,15.24
2023-04-25T17:49:06.198Z,15.14
2023-04-25T17:51:32.950Z,15.04
2023-04-25T17:53:59.706Z,14.94
2023-04-25T17:56:27.544Z,14.84
2023-04-25T17:58:55.227Z,14.76
2023-04-25T18:01:22.554Z,14.69
2023-04-25T18:03:52.157Z,14.58
2023-04-25T18:06:19.247Z,14.53
2023-04-25T18:08:47.041Z,14.45
2023-04-25T18:11:14.023Z,14.38
2023-04-25T18:13:41.444Z,14.30
2023-04-25T18:16:08.709Z,14.23
2023-04-25T18:18:36.814Z,14.15
2023-04-25T18:21:05.596Z,14.06
2023-04-25T18:23:40.866Z,13.97
2023-04-25T18:26:10.579Z,13.87
2023-04-25T18:28:40.512Z,13.79
2023-04-25T18:31:19.378Z,13.69
2023-04-25T18:34:09.126Z,13.58
2023-04-25T18:37:00.333Z,13.49
2023-04-25T18:39:45.628Z,13.41
2023-04-25T18:42:34.140Z,13.33
2023-04-25T18:45:01.001Z,13.27
2023-04-25T18:47:27.814Z,13.19
2023-04-25T18:49:54.585Z,13.53
2023-04-25T18:52:22.443Z,13.42
2023-04-25T18:54:49.417Z,13.25
2023-04-25T18:57:17.787Z,13.12
2023-04-25T18:59:46.134Z,12.99
2023-04-25T19:02:16.703Z,12.88
2023-04-25T19:04:44.124Z,12.76
2023-04-25T19:07:14.821Z,12.66
2023-04-25T19:09:41.672Z,12.56
2023-04-25T19:12:08.824Z,12.48
2023-04-25T19:14:36.277Z,12.40
2023-04-25T19:17:11.870Z,12.32
2023-04-25T19:19:53.824Z,12.29
2023-04-25T19:22:27.483Z,12.23
2023-04-25T19:25:03.123Z,12.18
2023-04-25T19:27:37.089Z,12.15
2023-04-25T19:30:08.101Z,12.09
2023-04-25T19:32:35.910Z,12.07
2023-04-25T19:35:04.031Z,11.98
2023-04-25T19:37:31.135Z,11.94
2023-04-25T19:39:58.100Z,11.90
2023-04-25T19:42:25.011Z,11.85
2023-04-25T19:44:52.691Z,11.82
2023-04-25T19:47:19.670Z,11.78
2023-04-25T19:49:47.410Z,11.73
2023-04-25T19:52:14.878Z,11.69
2023-04-25T19:54:41.957Z,11.65
2023-04-25T19:57:09.489Z,11.67
2023-04-25T19:59:36.392Z,11.68
2023-04-25T20:02:04.916Z,11.71
2023-04-25T20:04:32.054Z,11.70
2023-04-25T20:06:59.340Z,11.67
2023-04-25T20:09:26.231Z,11.65
2023-04-25T20:11:53.926Z,11.62
2023-04-25T20:14:21.859Z,11.56
2023-04-25T20:16:48.706Z,11.50
2023-04-25T20:19:15.685Z,11.44
2023-04-25T20:21:42.647Z,11.36
2023-04-25T20:24:11.378Z,11.31
2023-04-25T20:26:38.358Z,11.23
2023-04-25T20:29:07.100Z,11.21
2023-04-25T20:31:37.025Z,11.17
2023-04-25T20:34:06.528Z,11.16
2023-04-25T20:36:33.678Z,11.18
2023-04-25T20:39:01.287Z,11.21
2023-04-25T20:41:28.184Z,11.20
2023-04-25T20:43:54.947Z,11.26
2023-04-25T20:46:22.254Z,11.27
2023-04-25T20:48:49.392Z,11.30
2023-04-25T20:51:16.662Z,11.33
2023-04-25T20:53:43.468Z,11.33
2023-04-25T20:56:10.898Z,11.36
2023-04-25T20:58:37.666Z,11.36
2023-04-25T21:01:06.329Z,11.39
2023-04-25T21:03:34.364Z,11.39
2023-04-25T21:06:02.012Z,11.41
2023-04-25T21:08:28.794Z,11.44
2023-04-25T21:10:55.701Z,11.42
2023-04-25T21:13:22.670Z,11.41
2023-04-25T21:15:49.477Z,11.43
2023-04-25T21:18:16.548Z,11.43
2023-04-25T21:20:43.473Z,11.42
2023-04-25T21:23:10.446Z,11.41
2023-04-25T21:25:37.339Z,11.41
2023-04-25T21:28:04.132Z,11.40
2023-04-25T21:30:31.406Z,11.40
2023-04-25T21:32:58.400Z,11.39
2023-04-25T21:35:25.521Z,11.41
2023-04-25T21:37:52.591Z,11.41
2023-04-25T21:40:19.660Z,11.41
2023-04-25T21:42:51.451Z,11.40
2023-04-25T21:45:19.776Z,11.41
2023-04-25T21:47:47.773Z,11.40
2023-04-25T21:50:15.271Z,11.37
2023-04-25T21:52:42.139Z,11.37
2023-04-25T21:55:10.443Z,11.36
2023-04-25T21:57:37.273Z,11.30
2023-04-25T22:00:20.069Z,11.28
2023-04-25T22:02:51.032Z,11.24
2023-04-25T22:05:22.457Z,11.24
2023-04-25T22:07:54.879Z,11.18
2023-04-25T22:10:22.037Z,11.14
2023-04-25T22:12:51.949Z,11.08
2023-04-25T22:15:21.384Z,11.03
2023-04-25T22:17:48.659Z,10.95
2023-04-25T22:20:15.616Z,10.88
2023-04-25T22:22:45.335Z,10.83
2023-04-25T22:25:12.503Z,10.77
2023-04-25T22:27:43.669Z,10.75
2023-04-25T22:30:15.266Z,10.71
2023-04-25T22:32:42.786Z,10.69
2023-04-25T22:35:10.646Z,10.67
2023-04-25T22:37:37.693Z,10.66
2023-04-25T22:40:09.136Z,10.65
2023-04-25T22:42:40.475Z,10.62
2023-04-25T22:45:08.891Z,10.60
2023-04-25T22:47:37.709Z,10.56
2023-04-25T22:50:13.103Z,10.49
2023-04-25T22:52:41.886Z,10.41
2023-04-25T22:55:10.248Z,10.37
2023-04-25T22:57:41.403Z,10.28
2023-04-25T23:00:29.981Z,10.23
2023-04-25T23:02:57.143Z,10.12
2023-04-25T23:05:24.678Z,10.07
2023-04-25T23:07:51.567Z,9.98
2023-04-25T23:10:19.289Z,9.94
2023-04-25T23:12:46.067Z,9.87
2023-04-25T23:15:13.359Z,9.79
2023-04-25T23:17:40.872Z,9.75
2023-04-25T23:20:10.674Z,9.69
2023-04-25T23:22:38.085Z,9.61
2023-04-25T23:25:07.473Z,9.55
2023-04-25T23:27:34.314Z,9.52
2023-04-25T23:30:01.308Z,9.43
2023-04-25T23:32:28.129Z,9.38
2023-04-25T23:34:55.126Z,9.34
2023-04-25T23:37:21.911Z,9.27
2023-04-25T23:39:52.408Z,9.24
2023-04-25T23:42:20.012Z,9.19
2023-04-25T23:44:46.863Z,9.11
2023-04-25T23:47:17.377Z,9.07
2023-04-25T23:49:45.661Z,9.03
2023-04-25T23:52:13.052Z,9.00
2023-04-25T23:54:39.886Z,8.97
2023-04-25T23:57:06.702Z,8.93
2023-04-25T23:59:33.942Z,8.91
